sensor_id;sensor_type;location;lat;lon;timestamp;P1;durP1;ratioP1;P2;durP2;ratioP2
8584;SDS011;7180;52.742;11.420;2023-05-07T00:00:03;15.97;;;14.67;;
8584;SDS011;7180;52.742;11.420;2023-05-07T00:02:32;16.33;;;15.03;;
8584;SDS011;7180;52.742;11.420;2023-05-07T00:04:58;16.20;;;14.90;;
8584;SDS011;7180;52.742;11.420;2023-05-07T00:07:23;15.27;;;14.17;;
8584;SDS011;7180;52.742;11.420;2023-05-07T00:09:49;16.67;;;15.37;;
8584;SDS011;7180;52.742;11.420;2023-05-07T00:12:14;16.67;;;15.47;;
8584;SDS011;7180;52.742;11.420;2023-05-07T00:14:39;16.97;;;15.67;;
8584;SDS011;7180;52.742;11.420;2023-05-07T00:17:04;16.87;;;15.47;;
8584;SDS011;7180;52.742;11.420;2023-05-07T00:19:30;17.00;;;15.67;;
8584;SDS011;7180;52.742;11.420;2023-05-07T00:21:55;17.00;;;15.70;;
8584;SDS011;7180;52.742;11.420;2023-05-07T00:24:21;15.47;;;14.27;;
8584;SDS011;7180;52.742;11.420;2023-05-07T00:26:46;16.00;;;14.70;;
8584;SDS011;7180;52.742;11.420;2023-05-07T00:29:12;16.07;;;14.77;;
8584;SDS011;7180;52.742;11.420;2023-05-07T00:31:37;16.17;;;14.90;;
8584;SDS011;7180;52.742;11.420;2023-05-07T00:34:02;15.67;;;14.47;;
8584;SDS011;7180;52.742;11.420;2023-05-07T00:36:28;16.57;;;15.17;;
8584;SDS011;7180;52.742;11.420;2023-05-07T00:38:54;16.27;;;14.97;;
8584;SDS011;7180;52.742;11.420;2023-05-07T00:41:20;17.13;;;15.73;;
8584;SDS011;7180;52.742;11.420;2023-05-07T00:43:46;16.90;;;15.50;;
8584;SDS011;7180;52.742;11.420;2023-05-07T00:46:11;16.60;;;15.30;;
8584;SDS011;7180;52.742;11.420;2023-05-07T00:48:38;16.73;;;15.23;;
8584;SDS011;7180;52.742;11.420;2023-05-07T00:51:03;15.97;;;14.77;;
8584;SDS011;7180;52.742;11.420;2023-05-07T00:53:29;16.40;;;15.10;;
8584;SDS011;7180;52.742;11.420;2023-05-07T00:55:55;16.87;;;15.47;;
8584;SDS011;7180;52.742;11.420;2023-05-07T00:58:21;17.10;;;15.80;;
8584;SDS011;7180;52.742;11.420;2023-05-07T01:00:46;16.60;;;15.33;;
8584;SDS011;7180;52.742;11.420;2023-05-07T01:03:11;16.47;;;15.10;;
8584;SDS011;7180;52.742;11.420;2023-05-07T01:05:37;16.77;;;15.40;;
8584;SDS011;7180;52.742;11.420;2023-05-07T01:08:03;17.00;;;15.60;;
8584;SDS011;7180;52.742;11.420;2023-05-07T01:10:29;17.13;;;15.53;;
8584;SDS011;7180;52.742;11.420;2023-05-07T01:12:55;15.67;;;14.47;;
8584;SDS011;7180;52.742;11.420;2023-05-07T01:15:23;17.70;;;16.30;;
8584;SDS011;7180;52.742;11.420;2023-05-07T01:17:48;17.60;;;16.20;;
8584;SDS011;7180;52.742;11.420;2023-05-07T01:20:14;18.23;;;16.70;;
8584;SDS011;7180;52.742;11.420;2023-05-07T01:22:40;17.33;;;15.83;;
8584;SDS011;7180;52.742;11.420;2023-05-07T01:25:08;17.10;;;15.70;;
8584;SDS011;7180;52.742;11.420;2023-05-07T01:27:33;17.23;;;15.87;;
8584;SDS011;7180;52.742;11.420;2023-05-07T01:30:00;17.20;;;15.70;;
8584;SDS011;7180;52.742;11.420;2023-05-07T01:32:33;18.23;;;16.73;;
8584;SDS011;7180;52.742;11.420;2023-05-07T01:35:03;18.27;;;16.67;;
8584;SDS011;7180;52.742;11.420;2023-05-07T01:37:32;17.90;;;16.40;;
8584;SDS011;7180;52.742;11.420;2023-05-07T01:39:58;18.80;;;17.10;;
8584;SDS011;7180;52.742;11.420;2023-05-07T01:42:24;18.33;;;16.77;;
8584;SDS011;7180;52.742;11.420;2023-05-07T01:44:49;19.47;;;17.77;;
8584;SDS011;7180;52.742;11.420;2023-05-07T01:47:15;17.80;;;16.37;;
8584;SDS011;7180;52.742;11.420;2023-05-07T01:49:41;17.73;;;16.23;;
8584;SDS011;7180;52.742;11.420;2023-05-07T01:52:06;17.37;;;15.97;;
8584;SDS011;7180;52.742;11.420;2023-05-07T01:54:32;17.90;;;16.40;;
8584;SDS011;7180;52.742;11.420;2023-05-07T01:56:57;17.87;;;16.33;;
8584;SDS011;7180;52.742;11.420;2023-05-07T01:59:23;18.17;;;16.67;;
8584;SDS011;7180;52.742;11.420;2023-05-07T02:01:48;18.90;;;17.30;;
8584;SDS011;7180;52.742;11.420;2023-05-07T02:04:13;17.83;;;16.23;;
8584;SDS011;7180;52.742;11.420;2023-05-07T02:06:38;18.20;;;16.50;;
8584;SDS011;7180;52.742;11.420;2023-05-07T02:09:04;17.80;;;16.30;;
8584;SDS011;7180;52.742;11.420;2023-05-07T02:11:29;18.50;;;16.87;;
8584;SDS011;7180;52.742;11.420;2023-05-07T02:13:55;18.33;;;16.73;;
8584;SDS011;7180;52.742;11.420;2023-05-07T02:16:20;18.97;;;17.27;;
8584;SDS011;7180;52.742;11.420;2023-05-07T02:18:46;18.43;;;16.83;;
8584;SDS011;7180;52.742;11.420;2023-05-07T02:21:12;19.33;;;17.67;;
8584;SDS011;7180;52.742;11.420;2023-05-07T02:23:37;17.80;;;16.30;;
8584;SDS011;7180;52.742;11.420;2023-05-07T02:26:03;19.23;;;17.57;;
8584;SDS011;7180;52.742;11.420;2023-05-07T02:28:28;17.87;;;16.33;;
8584;SDS011;7180;52.742;11.420;2023-05-07T02:30:54;18.67;;;17.07;;
8584;SDS011;7180;52.742;11.420;2023-05-07T02:33:19;19.10;;;17.50;;
8584;SDS011;7180;52.742;11.420;2023-05-07T02:35:44;19.10;;;17.47;;
8584;SDS011;7180;52.742;11.420;2023-05-07T02:38:10;18.57;;;16.97;;
8584;SDS011;7180;52.742;11.420;2023-05-07T02:40:36;18.80;;;17.20;;
8584;SDS011;7180;52.742;11.420;2023-05-07T02:43:03;18.77;;;17.07;;
8584;SDS011;7180;52.742;11.420;2023-05-07T02:45:29;19.40;;;17.67;;
8584;SDS011;7180;52.742;11.420;2023-05-07T02:47:54;18.97;;;17.27;;
8584;SDS011;7180;52.742;11.420;2023-05-07T02:50:20;19.03;;;17.33;;
8584;SDS011;7180;52.742;11.420;2023-05-07T02:52:45;19.57;;;17.67;;
8584;SDS011;7180;52.742;11.420;2023-05-07T02:55:10;19.57;;;17.87;;
8584;SDS011;7180;52.742;11.420;2023-05-07T02:57:36;19.63;;;18.03;;
8584;SDS011;7180;52.742;11.420;2023-05-07T03:00:09;17.93;;;16.43;;
8584;SDS011;7180;52.742;11.420;2023-05-07T03:02:36;19.17;;;17.37;;
8584;SDS011;7180;52.742;11.420;2023-05-07T03:05:01;17.53;;;16.03;;
8584;SDS011;7180;52.742;11.420;2023-05-07T03:07:26;18.23;;;16.70;;
8584;SDS011;7180;52.742;11.420;2023-05-07T03:09:52;18.23;;;16.73;;
8584;SDS011;7180;52.742;11.420;2023-05-07T03:12:17;17.60;;;16.03;;
8584;SDS011;7180;52.742;11.420;2023-05-07T03:14:42;18.20;;;16.70;;
8584;SDS011;7180;52.742;11.420;2023-05-07T03:17:07;17.37;;;15.87;;
8584;SDS011;7180;52.742;11.420;2023-05-07T03:19:33;17.37;;;16.07;;
8584;SDS011;7180;52.742;11.420;2023-05-07T03:21:58;17.00;;;15.70;;
8584;SDS011;7180;52.742;11.420;2023-05-07T03:24:23;18.03;;;16.47;;
8584;SDS011;7180;52.742;11.420;2023-05-07T03:26:48;17.27;;;15.93;;
8584;SDS011;7180;52.742;11.420;2023-05-07T03:29:14;16.50;;;15.10;;
8584;SDS011;7180;52.742;11.420;2023-05-07T03:31:39;17.07;;;15.63;;
8584;SDS011;7180;52.742;11.420;2023-05-07T03:34:04;17.83;;;16.23;;
8584;SDS011;7180;52.742;11.420;2023-05-07T03:36:29;17.17;;;15.77;;
8584;SDS011;7180;52.742;11.420;2023-05-07T03:38:55;17.70;;;16.20;;
8584;SDS011;7180;52.742;11.420;2023-05-07T03:41:20;17.30;;;15.80;;
8584;SDS011;7180;52.742;11.420;2023-05-07T03:43:46;17.10;;;15.70;;
8584;SDS011;7180;52.742;11.420;2023-05-07T03:46:11;17.30;;;15.90;;
8584;SDS011;7180;52.742;11.420;2023-05-07T03:48:36;17.93;;;16.43;;
8584;SDS011;7180;52.742;11.420;2023-05-07T03:51:01;17.37;;;15.97;;
8584;SDS011;7180;52.742;11.420;2023-05-07T03:53:27;17.20;;;15.80;;
8584;SDS011;7180;52.742;11.420;2023-05-07T03:55:52;18.20;;;16.73;;
8584;SDS011;7180;52.742;11.420;2023-05-07T03:58:17;16.83;;;15.53;;
8584;SDS011;7180;52.742;11.420;2023-05-07T04:00:42;17.83;;;16.33;;
8584;SDS011;7180;52.742;11.420;2023-05-07T04:03:08;17.50;;;16.00;;
8584;SDS011;7180;52.742;11.420;2023-05-07T04:05:33;16.97;;;15.47;;
8584;SDS011;7180;52.742;11.420;2023-05-07T04:07:59;16.37;;;15.07;;
8584;SDS011;7180;52.742;11.420;2023-05-07T04:10:24;17.07;;;15.53;;
8584;SDS011;7180;52.742;11.420;2023-05-07T04:12:49;16.93;;;15.53;;
8584;SDS011;7180;52.742;11.420;2023-05-07T04:15:15;16.47;;;15.10;;
8584;SDS011;7180;52.742;11.420;2023-05-07T04:17:40;16.60;;;15.30;;
8584;SDS011;7180;52.742;11.420;2023-05-07T04:20:08;16.53;;;15.23;;
8584;SDS011;7180;52.742;11.420;2023-05-07T04:22:34;16.07;;;14.80;;
8584;SDS011;7180;52.742;11.420;2023-05-07T04:24:59;16.00;;;14.70;;
8584;SDS011;7180;52.742;11.420;2023-05-07T04:27:25;16.73;;;15.30;;
8584;SDS011;7180;52.742;11.420;2023-05-07T04:29:51;15.43;;;14.23;;
8584;SDS011;7180;52.742;11.420;2023-05-07T04:32:16;16.60;;;15.23;;
8584;SDS011;7180;52.742;11.420;2023-05-07T04:34:42;15.73;;;14.43;;
8584;SDS011;7180;52.742;11.420;2023-05-07T04:37:08;17.33;;;15.87;;
8584;SDS011;7180;52.742;11.420;2023-05-07T04:39:33;17.60;;;16.13;;
8584;SDS011;7180;52.742;11.420;2023-05-07T04:42:00;17.23;;;15.83;;
8584;SDS011;7180;52.742;11.420;2023-05-07T04:44:25;17.87;;;16.30;;
8584;SDS011;7180;52.742;11.420;2023-05-07T04:46:51;16.93;;;15.57;;
8584;SDS011;7180;52.742;11.420;2023-05-07T04:49:16;17.47;;;16.07;;
8584;SDS011;7180;52.742;11.420;2023-05-07T04:51:41;16.67;;;15.37;;
8584;SDS011;7180;52.742;11.420;2023-05-07T04:54:07;16.93;;;15.43;;
8584;SDS011;7180;52.742;11.420;2023-05-07T04:56:33;17.17;;;15.77;;
8584;SDS011;7180;52.742;11.420;2023-05-07T04:58:58;17.27;;;15.87;;
8584;SDS011;7180;52.742;11.420;2023-05-07T05:01:23;17.10;;;15.70;;
8584;SDS011;7180;52.742;11.420;2023-05-07T05:03:49;17.77;;;16.33;;
8584;SDS011;7180;52.742;11.420;2023-05-07T05:06:14;18.80;;;17.13;;
8584;SDS011;7180;52.742;11.420;2023-05-07T05:08:39;18.23;;;16.83;;
8584;SDS011;7180;52.742;11.420;2023-05-07T05:11:04;18.30;;;16.70;;
8584;SDS011;7180;52.742;11.420;2023-05-07T05:13:30;17.43;;;16.03;;
8584;SDS011;7180;52.742;11.420;2023-05-07T05:15:55;17.37;;;15.97;;
8584;SDS011;7180;52.742;11.420;2023-05-07T05:18:20;17.67;;;16.17;;
8584;SDS011;7180;52.742;11.420;2023-05-07T05:20:46;16.80;;;15.40;;
8584;SDS011;7180;52.742;11.420;2023-05-07T05:23:11;16.97;;;15.53;;
8584;SDS011;7180;52.742;11.420;2023-05-07T05:25:37;17.10;;;15.70;;
8584;SDS011;7180;52.742;11.420;2023-05-07T05:28:04;17.33;;;15.73;;
8584;SDS011;7180;52.742;11.420;2023-05-07T05:30:29;16.27;;;14.97;;
8584;SDS011;7180;52.742;11.420;2023-05-07T05:32:54;16.30;;;15.00;;
8584;SDS011;7180;52.742;11.420;2023-05-07T05:35:20;17.17;;;15.67;;
8584;SDS011;7180;52.742;11.420;2023-05-07T05:37:45;15.70;;;14.53;;
8584;SDS011;7180;52.742;11.420;2023-05-07T05:40:10;16.70;;;15.33;;
8584;SDS011;7180;52.742;11.420;2023-05-07T05:42:36;15.63;;;14.50;;
8584;SDS011;7180;52.742;11.420;2023-05-07T05:45:01;15.73;;;14.53;;
8584;SDS011;7180;52.742;11.420;2023-05-07T05:47:26;16.30;;;15.07;;
8584;SDS011;7180;52.742;11.420;2023-05-07T05:49:52;16.50;;;15.30;;
8584;SDS011;7180;52.742;11.420;2023-05-07T05:52:17;15.80;;;14.70;;
8584;SDS011;7180;52.742;11.420;2023-05-07T05:54:42;15.87;;;14.47;;
8584;SDS011;7180;52.742;11.420;2023-05-07T05:57:08;15.37;;;14.17;;
8584;SDS011;7180;52.742;11.420;2023-05-07T05:59:33;15.83;;;14.63;;
8584;SDS011;7180;52.742;11.420;2023-05-07T06:01:58;15.50;;;14.33;;
8584;SDS011;7180;52.742;11.420;2023-05-07T06:04:23;16.13;;;14.77;;
8584;SDS011;7180;52.742;11.420;2023-05-07T06:06:49;15.20;;;14.10;;
8584;SDS011;7180;52.742;11.420;2023-05-07T06:09:14;15.43;;;14.33;;
8584;SDS011;7180;52.742;11.420;2023-05-07T06:11:39;15.10;;;14.00;;
8584;SDS011;7180;52.742;11.420;2023-05-07T06:14:05;15.47;;;14.37;;
8584;SDS011;7180;52.742;11.420;2023-05-07T06:16:31;15.13;;;14.03;;
8584;SDS011;7180;52.742;11.420;2023-05-07T06:18:56;14.73;;;13.63;;
8584;SDS011;7180;52.742;11.420;2023-05-07T06:21:21;15.60;;;14.47;;
8584;SDS011;7180;52.742;11.420;2023-05-07T06:23:46;15.30;;;14.10;;
8584;SDS011;7180;52.742;11.420;2023-05-07T06:26:12;14.87;;;13.77;;
8584;SDS011;7180;52.742;11.420;2023-05-07T06:28:37;15.27;;;14.17;;
8584;SDS011;7180;52.742;11.420;2023-05-07T06:31:15;14.63;;;13.53;;
8584;SDS011;7180;52.742;11.420;2023-05-07T06:33:41;14.40;;;13.40;;
8584;SDS011;7180;52.742;11.420;2023-05-07T06:36:07;14.27;;;13.17;;
8584;SDS011;7180;52.742;11.420;2023-05-07T06:38:33;13.73;;;12.77;;
8584;SDS011;7180;52.742;11.420;2023-05-07T06:40:58;13.70;;;12.70;;
8584;SDS011;7180;52.742;11.420;2023-05-07T06:43:23;13.97;;;12.97;;
8584;SDS011;7180;52.742;11.420;2023-05-07T06:45:49;13.33;;;12.40;;
8584;SDS011;7180;52.742;11.420;2023-05-07T06:48:14;13.97;;;12.97;;
8584;SDS011;7180;52.742;11.420;2023-05-07T06:50:39;14.40;;;13.20;;
8584;SDS011;7180;52.742;11.420;2023-05-07T06:53:05;14.13;;;13.07;;
8584;SDS011;7180;52.742;11.420;2023-05-07T06:55:30;14.33;;;13.33;;
8584;SDS011;7180;52.742;11.420;2023-05-07T06:57:55;14.00;;;13.00;;
8584;SDS011;7180;52.742;11.420;2023-05-07T07:00:23;15.07;;;13.97;;
8584;SDS011;7180;52.742;11.420;2023-05-07T07:02:48;15.23;;;14.07;;
8584;SDS011;7180;52.742;11.420;2023-05-07T07:05:13;14.97;;;13.87;;
8584;SDS011;7180;52.742;11.420;2023-05-07T07:07:38;15.07;;;13.87;;
8584;SDS011;7180;52.742;11.420;2023-05-07T07:10:04;15.13;;;14.03;;
8584;SDS011;7180;52.742;11.420;2023-05-07T07:12:31;15.13;;;14.03;;
8584;SDS011;7180;52.742;11.420;2023-05-07T07:14:56;15.63;;;14.43;;
8584;SDS011;7180;52.742;11.420;2023-05-07T07:17:21;15.37;;;13.97;;
8584;SDS011;7180;52.742;11.420;2023-05-07T07:19:47;15.00;;;13.80;;
8584;SDS011;7180;52.742;11.420;2023-05-07T07:22:12;15.20;;;14.10;;
8584;SDS011;7180;52.742;11.420;2023-05-07T07:24:37;15.83;;;14.63;;
8584;SDS011;7180;52.742;11.420;2023-05-07T07:27:03;15.30;;;14.17;;
8584;SDS011;7180;52.742;11.420;2023-05-07T07:29:28;14.60;;;13.50;;
8584;SDS011;7180;52.742;11.420;2023-05-07T07:31:53;16.03;;;14.63;;
8584;SDS011;7180;52.742;11.420;2023-05-07T07:34:18;15.47;;;14.17;;
8584;SDS011;7180;52.742;11.420;2023-05-07T07:36:44;14.97;;;13.77;;
8584;SDS011;7180;52.742;11.420;2023-05-07T07:39:09;13.93;;;12.93;;
8584;SDS011;7180;52.742;11.420;2023-05-07T07:41:34;14.00;;;12.83;;
8584;SDS011;7180;52.742;11.420;2023-05-07T07:43:59;14.93;;;13.80;;
8584;SDS011;7180;52.742;11.420;2023-05-07T07:46:25;13.87;;;12.97;;
8584;SDS011;7180;52.742;11.420;2023-05-07T07:48:51;14.33;;;13.13;;
8584;SDS011;7180;52.742;11.420;2023-05-07T07:51:16;13.63;;;12.63;;
8584;SDS011;7180;52.742;11.420;2023-05-07T07:53:42;14.30;;;13.20;;
8584;SDS011;7180;52.742;11.420;2023-05-07T07:56:07;14.20;;;13.10;;
8584;SDS011;7180;52.742;11.420;2023-05-07T07:58:32;13.30;;;12.30;;
8584;SDS011;7180;52.742;11.420;2023-05-07T08:00:57;13.70;;;12.60;;
8584;SDS011;7180;52.742;11.420;2023-05-07T08:03:23;14.50;;;13.40;;
8584;SDS011;7180;52.742;11.420;2023-05-07T08:05:48;14.37;;;13.27;;
8584;SDS011;7180;52.742;11.420;2023-05-07T08:08:16;13.83;;;12.87;;
8584;SDS011;7180;52.742;11.420;2023-05-07T08:10:41;14.40;;;13.20;;
8584;SDS011;7180;52.742;11.420;2023-05-07T08:13:06;13.37;;;12.37;;
8584;SDS011;7180;52.742;11.420;2023-05-07T08:15:32;13.80;;;12.70;;
8584;SDS011;7180;52.742;11.420;2023-05-07T08:17:57;13.93;;;12.93;;
8584;SDS011;7180;52.742;11.420;2023-05-07T08:20:24;13.93;;;12.83;;
8584;SDS011;7180;52.742;11.420;2023-05-07T08:22:50;14.03;;;13.03;;
8584;SDS011;7180;52.742;11.420;2023-05-07T08:25:16;14.10;;;13.10;;
8584;SDS011;7180;52.742;11.420;2023-05-07T08:27:41;14.63;;;13.53;;
8584;SDS011;7180;52.742;11.420;2023-05-07T08:30:07;15.13;;;13.80;;
8584;SDS011;7180;52.742;11.420;2023-05-07T08:32:33;14.43;;;13.43;;
8584;SDS011;7180;52.742;11.420;2023-05-07T08:34:58;15.03;;;13.93;;
8584;SDS011;7180;52.742;11.420;2023-05-07T08:37:23;15.90;;;14.70;;
8584;SDS011;7180;52.742;11.420;2023-05-07T08:39:48;15.23;;;14.13;;
8584;SDS011;7180;52.742;11.420;2023-05-07T08:42:14;13.93;;;12.83;;
8584;SDS011;7180;52.742;11.420;2023-05-07T08:44:41;14.30;;;13.20;;
8584;SDS011;7180;52.742;11.420;2023-05-07T08:47:11;14.47;;;13.37;;
8584;SDS011;7180;52.742;11.420;2023-05-07T08:49:37;14.90;;;13.80;;
8584;SDS011;7180;52.742;11.420;2023-05-07T08:52:02;15.67;;;14.50;;
8584;SDS011;7180;52.742;11.420;2023-05-07T08:54:28;13.80;;;12.80;;
8584;SDS011;7180;52.742;11.420;2023-05-07T08:56:54;13.60;;;12.60;;
8584;SDS011;7180;52.742;11.420;2023-05-07T08:59:19;13.70;;;12.70;;
8584;SDS011;7180;52.742;11.420;2023-05-07T09:01:45;14.50;;;13.30;;
8584;SDS011;7180;52.742;11.420;2023-05-07T09:04:10;14.40;;;13.37;;
8584;SDS011;7180;52.742;11.420;2023-05-07T09:06:37;14.80;;;13.70;;
8584;SDS011;7180;52.742;11.420;2023-05-07T09:09:06;13.83;;;12.93;;
8584;SDS011;7180;52.742;11.420;2023-05-07T09:11:32;14.97;;;13.97;;
8584;SDS011;7180;52.742;11.420;2023-05-07T09:13:57;13.20;;;12.20;;
8584;SDS011;7180;52.742;11.420;2023-05-07T09:16:26;13.07;;;12.13;;
8584;SDS011;7180;52.742;11.420;2023-05-07T09:18:52;13.77;;;12.77;;
8584;SDS011;7180;52.742;11.420;2023-05-07T09:21:19;13.23;;;12.23;;
8584;SDS011;7180;52.742;11.420;2023-05-07T09:23:45;13.23;;;12.33;;
8584;SDS011;7180;52.742;11.420;2023-05-07T09:26:13;14.20;;;13.10;;
8584;SDS011;7180;52.742;11.420;2023-05-07T09:28:39;13.50;;;12.50;;
8584;SDS011;7180;52.742;11.420;2023-05-07T09:31:06;13.40;;;12.50;;
8584;SDS011;7180;52.742;11.420;2023-05-07T09:33:32;13.40;;;12.40;;
8584;SDS011;7180;52.742;11.420;2023-05-07T09:35:57;13.90;;;12.90;;
8584;SDS011;7180;52.742;11.420;2023-05-07T09:38:23;14.40;;;13.20;;
8584;SDS011;7180;52.742;11.420;2023-05-07T09:40:52;13.50;;;12.53;;
8584;SDS011;7180;52.742;11.420;2023-05-07T09:43:27;13.70;;;12.70;;
8584;SDS011;7180;52.742;11.420;2023-05-07T09:45:58;13.37;;;12.47;;
8584;SDS011;7180;52.742;11.420;2023-05-07T09:48:24;13.53;;;12.53;;
8584;SDS011;7180;52.742;11.420;2023-05-07T09:50:51;14.53;;;13.43;;
8584;SDS011;7180;52.742;11.420;2023-05-07T09:53:21;14.17;;;13.17;;
8584;SDS011;7180;52.742;11.420;2023-05-07T09:55:47;13.90;;;13.00;;
8584;SDS011;7180;52.742;11.420;2023-05-07T09:58:13;15.07;;;13.97;;
8584;SDS011;7180;52.742;11.420;2023-05-07T10:00:39;13.93;;;12.93;;
8584;SDS011;7180;52.742;11.420;2023-05-07T10:03:07;14.40;;;13.37;;
8584;SDS011;7180;52.742;11.420;2023-05-07T10:05:34;13.37;;;12.40;;
8584;SDS011;7180;52.742;11.420;2023-05-07T10:08:00;13.73;;;12.63;;
8584;SDS011;7180;52.742;11.420;2023-05-07T10:10:26;13.90;;;12.90;;
8584;SDS011;7180;52.742;11.420;2023-05-07T10:12:52;12.93;;;11.93;;
8584;SDS011;7180;52.742;11.420;2023-05-07T10:15:19;14.10;;;13.00;;
8584;SDS011;7180;52.742;11.420;2023-05-07T10:17:44;14.10;;;13.10;;
8584;SDS011;7180;52.742;11.420;2023-05-07T10:20:10;14.20;;;13.20;;
8584;SDS011;7180;52.742;11.420;2023-05-07T10:22:40;14.63;;;13.43;;
8584;SDS011;7180;52.742;11.420;2023-05-07T10:25:14;14.00;;;13.00;;
8584;SDS011;7180;52.742;11.420;2023-05-07T10:27:42;13.67;;;12.70;;
8584;SDS011;7180;52.742;11.420;2023-05-07T10:32:53;14.10;;;13.10;;
8584;SDS011;7180;52.742;11.420;2023-05-07T10:35:23;13.17;;;12.10;;
8584;SDS011;7180;52.742;11.420;2023-05-07T10:37:51;13.37;;;12.47;;
8584;SDS011;7180;52.742;11.420;2023-05-07T10:40:16;13.87;;;12.97;;
8584;SDS011;7180;52.742;11.420;2023-05-07T10:42:54;12.87;;;11.97;;
8584;SDS011;7180;52.742;11.420;2023-05-07T10:45:27;12.93;;;12.03;;
8584;SDS011;7180;52.742;11.420;2023-05-07T10:48:27;13.37;;;12.43;;
8584;SDS011;7180;52.742;11.420;2023-05-07T10:50:45;13.37;;;12.37;;
8584;SDS011;7180;52.742;11.420;2023-05-07T10:55:42;12.50;;;11.70;;
8584;SDS011;7180;52.742;11.420;2023-05-07T10:58:22;12.43;;;11.63;;
8584;SDS011;7180;52.742;11.420;2023-05-07T11:00:48;11.77;;;10.97;;
8584;SDS011;7180;52.742;11.420;2023-05-07T11:03:14;12.23;;;11.43;;
8584;SDS011;7180;52.742;11.420;2023-05-07T11:05:40;12.03;;;11.33;;
8584;SDS011;7180;52.742;11.420;2023-05-07T11:08:07;11.13;;;10.50;;
8584;SDS011;7180;52.742;11.420;2023-05-07T11:10:52;11.60;;;10.80;;
8584;SDS011;7180;52.742;11.420;2023-05-07T11:13:40;12.67;;;11.87;;
8584;SDS011;7180;52.742;11.420;2023-05-07T11:16:19;11.97;;;11.17;;
8584;SDS011;7180;52.742;11.420;2023-05-07T11:18:46;11.70;;;11.00;;
8584;SDS011;7180;52.742;11.420;2023-05-07T11:21:13;11.60;;;10.90;;
8584;SDS011;7180;52.742;11.420;2023-05-07T11:23:56;11.30;;;10.63;;
8584;SDS011;7180;52.742;11.420;2023-05-07T11:26:22;12.33;;;11.53;;
8584;SDS011;7180;52.742;11.420;2023-05-07T11:28:48;11.67;;;10.97;;
8584;SDS011;7180;52.742;11.420;2023-05-07T11:31:13;11.67;;;10.97;;
8584;SDS011;7180;52.742;11.420;2023-05-07T11:33:39;11.73;;;11.00;;
8584;SDS011;7180;52.742;11.420;2023-05-07T11:36:05;11.77;;;11.03;;
8584;SDS011;7180;52.742;11.420;2023-05-07T11:38:36;11.23;;;10.53;;
8584;SDS011;7180;52.742;11.420;2023-05-07T11:41:02;12.37;;;11.67;;
8584;SDS011;7180;52.742;11.420;2023-05-07T11:43:29;12.33;;;11.53;;
8584;SDS011;7180;52.742;11.420;2023-05-07T11:45:58;12.00;;;11.20;;
8584;SDS011;7180;52.742;11.420;2023-05-07T11:48:30;12.10;;;11.30;;
8584;SDS011;7180;52.742;11.420;2023-05-07T11:53:25;12.60;;;11.80;;
8584;SDS011;7180;52.742;11.420;2023-05-07T11:55:52;12.23;;;11.43;;
8584;SDS011;7180;52.742;11.420;2023-05-07T11:58:20;12.17;;;11.40;;
8584;SDS011;7180;52.742;11.420;2023-05-07T12:00:48;11.73;;;10.83;;
8584;SDS011;7180;52.742;11.420;2023-05-07T12:03:14;11.50;;;10.70;;
8584;SDS011;7180;52.742;11.420;2023-05-07T12:05:39;11.20;;;10.60;;
8584;SDS011;7180;52.742;11.420;2023-05-07T12:08:06;11.10;;;10.50;;
8584;SDS011;7180;52.742;11.420;2023-05-07T12:10:32;11.50;;;10.80;;
8584;SDS011;7180;52.742;11.420;2023-05-07T12:12:57;11.23;;;10.63;;
8584;SDS011;7180;52.742;11.420;2023-05-07T12:15:22;11.87;;;11.17;;
8584;SDS011;7180;52.742;11.420;2023-05-07T12:17:48;11.50;;;10.70;;
8584;SDS011;7180;52.742;11.420;2023-05-07T12:20:13;11.20;;;10.47;;
8584;SDS011;7180;52.742;11.420;2023-05-07T12:22:39;10.50;;;9.90;;
8584;SDS011;7180;52.742;11.420;2023-05-07T12:25:06;10.27;;;9.67;;
8584;SDS011;7180;52.742;11.420;2023-05-07T12:27:31;10.77;;;10.07;;
8584;SDS011;7180;52.742;11.420;2023-05-07T12:29:57;10.90;;;10.30;;
8584;SDS011;7180;52.742;11.420;2023-05-07T12:32:22;10.60;;;10.00;;
8584;SDS011;7180;52.742;11.420;2023-05-07T12:34:51;10.67;;;10.00;;
8584;SDS011;7180;52.742;11.420;2023-05-07T12:37:17;10.73;;;10.13;;
8584;SDS011;7180;52.742;11.420;2023-05-07T12:39:49;11.07;;;10.47;;
8584;SDS011;7180;52.742;11.420;2023-05-07T12:42:39;10.93;;;10.33;;
8584;SDS011;7180;52.742;11.420;2023-05-07T12:45:09;9.50;;;8.90;;
8584;SDS011;7180;52.742;11.420;2023-05-07T12:47:37;10.23;;;9.63;;
8584;SDS011;7180;52.742;11.420;2023-05-07T12:50:04;11.20;;;10.53;;
8584;SDS011;7180;52.742;11.420;2023-05-07T12:52:31;11.33;;;10.73;;
8584;SDS011;7180;52.742;11.420;2023-05-07T12:54:56;10.63;;;10.03;;
8584;SDS011;7180;52.742;11.420;2023-05-07T12:57:29;11.20;;;10.60;;
8584;SDS011;7180;52.742;11.420;2023-05-07T12:59:57;10.93;;;10.33;;
8584;SDS011;7180;52.742;11.420;2023-05-07T13:02:31;11.00;;;10.40;;
8584;SDS011;7180;52.742;11.420;2023-05-07T13:04:57;11.47;;;10.67;;
8584;SDS011;7180;52.742;11.420;2023-05-07T13:07:24;10.87;;;10.27;;
8584;SDS011;7180;52.742;11.420;2023-05-07T13:09:50;11.10;;;10.40;;
8584;SDS011;7180;52.742;11.420;2023-05-07T13:12:15;11.07;;;10.37;;
8584;SDS011;7180;52.742;11.420;2023-05-07T13:14:40;10.33;;;9.73;;
8584;SDS011;7180;52.742;11.420;2023-05-07T13:17:05;11.23;;;10.43;;
8584;SDS011;7180;52.742;11.420;2023-05-07T13:19:31;10.23;;;9.63;;
8584;SDS011;7180;52.742;11.420;2023-05-07T13:21:56;10.23;;;9.63;;
8584;SDS011;7180;52.742;11.420;2023-05-07T13:24:21;10.40;;;9.80;;
8584;SDS011;7180;52.742;11.420;2023-05-07T13:26:46;10.10;;;9.60;;
8584;SDS011;7180;52.742;11.420;2023-05-07T13:29:12;10.27;;;9.63;;
8584;SDS011;7180;52.742;11.420;2023-05-07T13:31:37;10.30;;;9.70;;
8584;SDS011;7180;52.742;11.420;2023-05-07T13:34:07;10.40;;;9.80;;
8584;SDS011;7180;52.742;11.420;2023-05-07T13:36:32;10.53;;;9.93;;
8584;SDS011;7180;52.742;11.420;2023-05-07T13:39:01;10.50;;;9.90;;
8584;SDS011;7180;52.742;11.420;2023-05-07T13:41:27;9.70;;;9.20;;
8584;SDS011;7180;52.742;11.420;2023-05-07T13:43:53;10.13;;;9.60;;
8584;SDS011;7180;52.742;11.420;2023-05-07T13:46:18;10.17;;;9.67;;
8584;SDS011;7180;52.742;11.420;2023-05-07T13:48:43;9.90;;;9.40;;
8584;SDS011;7180;52.742;11.420;2023-05-07T13:51:08;10.00;;;9.43;;
8584;SDS011;7180;52.742;11.420;2023-05-07T13:53:34;9.97;;;9.37;;
8584;SDS011;7180;52.742;11.420;2023-05-07T13:56:00;9.93;;;9.43;;
8584;SDS011;7180;52.742;11.420;2023-05-07T13:58:26;9.80;;;9.30;;
8584;SDS011;7180;52.742;11.420;2023-05-07T14:00:51;10.37;;;9.70;;
8584;SDS011;7180;52.742;11.420;2023-05-07T14:03:17;10.33;;;9.73;;
8584;SDS011;7180;52.742;11.420;2023-05-07T14:05:42;10.23;;;9.57;;
8584;SDS011;7180;52.742;11.420;2023-05-07T14:08:07;10.10;;;9.60;;
8584;SDS011;7180;52.742;11.420;2023-05-07T14:10:33;9.57;;;9.07;;
8584;SDS011;7180;52.742;11.420;2023-05-07T14:12:59;9.90;;;9.40;;
8584;SDS011;7180;52.742;11.420;2023-05-07T14:15:24;9.17;;;8.67;;
8584;SDS011;7180;52.742;11.420;2023-05-07T14:17:50;8.90;;;8.40;;
8584;SDS011;7180;52.742;11.420;2023-05-07T14:20:15;9.57;;;8.90;;
8584;SDS011;7180;52.742;11.420;2023-05-07T14:22:40;9.70;;;9.10;;
8584;SDS011;7180;52.742;11.420;2023-05-07T14:25:06;9.87;;;9.37;;
8584;SDS011;7180;52.742;11.420;2023-05-07T14:27:31;9.37;;;8.87;;
8584;SDS011;7180;52.742;11.420;2023-05-07T14:29:57;9.93;;;9.33;;
8584;SDS011;7180;52.742;11.420;2023-05-07T14:32:22;9.90;;;9.40;;
8584;SDS011;7180;52.742;11.420;2023-05-07T14:34:47;10.10;;;9.60;;
8584;SDS011;7180;52.742;11.420;2023-05-07T14:37:13;10.07;;;9.47;;